テグシガルパ の空港の天気 - METARとTAF

トンコンティン国際空港 ( MHTG / TGU ) - ホンジュラス テグシガルパ
飛行場実況気象(Metar)
観測時間10/20 18:48 CST (10/21 00:48 UTC)
風向・風速不定 1m/s
視程10km以上
天気現象
少しの雲 雲底高度 240m
全天の4割程度の雲 雲底高度 910m
気温21℃
湿度100%
気圧1014hPa
METARMHTG 210200Z VRB02KT 9999 FEW008 SCT030 21/21 Q1014 A2994 NOSIG
過去の天気等 Google飛行場航空写真 Wunderground天気予報

過去48時間のMETAR

飛行場予報(TAF)
発表時間: 10/20 16:35 CST (10/20 22:35 UTC)
予報対象時間: 20日18時 CST ~ 21日18時 CST
風向・風速南 2m/s
視程6000m
天気現象
全天の4割程度の塔状積雲 雲底高度 850m
少しの積乱雲 雲底高度 910m
全天の8割程度の雲 雲底高度 2440m
21日2時 CST ~ 21日4時 CST に徐々に
風向・風速静穏
視程5000m
天気現象もや
全天の4割程度の雲 雲底高度 180m
全天の8割程度の雲 雲底高度 730m
21日8時 CST ~ 21日10時 CST に徐々に
風向・風速北北東 3m/s
視程10km以上
天気現象運行に影響にある天気現象が終了
少しの雲 雲底高度 370m
全天の4割程度の雲 雲底高度 790m
21日14時 CST ~ 21日18時 CST に一時的に
視程6000m
天気現象
全天の4割程度の塔状積雲 雲底高度 850m
少しの積乱雲 雲底高度 910m
全天の4割程度の雲 雲底高度 2440m
TAF MHTG 202235Z 2100/2124 17004KT 6000 RA SCT028TCU FEW030CB BKN080 TX26/2120Z TN17/2112Z
BECMG 2108/2110 00000KT 5000 BR SCT006 BKN024
BECMG 2114/2116 02006KT 9999 NSW FEW012 SCT026
TEMPO 2120/2124 6000 RA SCT028TCU FEW030CB SCT080